sensor_id;sensor_type;location;lat;lon;timestamp;pressure;altitude;pressure_sealevel;temperature;humidity
70458;BME280;57919;56.194;95.716;2023-05-22T00:07:44;98914.28;;;17.03;37.63
70458;BME280;57919;56.194;95.716;2023-05-22T00:17:46;98931.31;;;17.95;35.76
70458;BME280;57919;56.194;95.716;2023-05-22T00:27:48;98939.41;;;18.03;35.33
70458;BME280;57919;56.194;95.716;2023-05-22T00:37:50;98945.75;;;18.90;33.37
70458;BME280;57919;56.194;95.716;2023-05-22T00:47:52;98930.72;;;20.67;31.66
70458;BME280;57919;56.194;95.716;2023-05-22T00:57:54;98928.50;;;21.76;29.63
70458;BME280;57919;56.194;95.716;2023-05-22T01:07:57;98920.78;;;22.69;28.72
70458;BME280;57919;56.194;95.716;2023-05-22T01:38:52;98905.44;;;24.47;26.95
70458;BME280;57919;56.194;95.716;2023-05-22T01:48:56;98910.47;;;24.99;25.94
70458;BME280;57919;56.194;95.716;2023-05-22T01:59:13;98911.47;;;25.69;23.63
70458;BME280;57919;56.194;95.716;2023-05-22T02:09:20;98904.13;;;26.62;23.91
70458;BME280;57919;56.194;95.716;2023-05-22T02:19:24;98899.19;;;27.71;22.70
70458;BME280;57919;56.194;95.716;2023-05-22T02:29:46;98898.44;;;28.31;21.70
70458;BME280;57919;56.194;95.716;2023-05-22T02:39:48;98889.19;;;28.96;21.10
70458;BME280;57919;56.194;95.716;2023-05-22T02:49:50;98882.25;;;29.25;20.29
70458;BME280;57919;56.194;95.716;2023-05-22T02:59:52;98880.88;;;29.60;19.91
70458;BME280;57919;56.194;95.716;2023-05-22T03:09:54;98888.88;;;29.83;19.60
70458;BME280;57919;56.194;95.716;2023-05-22T03:19:57;98871.13;;;30.00;19.26
70458;BME280;57919;56.194;95.716;2023-05-22T03:29:59;98868.28;;;29.95;18.79
70458;BME280;57919;56.194;95.716;2023-05-22T03:40:02;98854.94;;;29.27;18.26
70458;BME280;57919;56.194;95.716;2023-05-22T03:50:06;98863.03;;;27.54;19.28
70458;BME280;57919;56.194;95.716;2023-05-22T04:00:09;98866.91;;;28.96;18.04
70458;BME280;57919;56.194;95.716;2023-05-22T04:10:15;98857.44;;;29.56;17.67
70458;BME280;57919;56.194;95.716;2023-05-22T04:20:18;98848.69;;;29.42;17.19
70458;BME280;57919;56.194;95.716;2023-05-22T04:30:22;98837.84;;;29.14;16.75
70458;BME280;57919;56.194;95.716;2023-05-22T04:40:26;98835.28;;;26.47;19.02
70458;BME280;57919;56.194;95.716;2023-05-22T04:50:30;98828.53;;;27.50;17.93
70458;BME280;57919;56.194;95.716;2023-05-22T05:00:33;98829.09;;;28.08;17.52
70458;BME280;57919;56.194;95.716;2023-05-22T05:10:36;98811.03;;;28.81;17.85
70458;BME280;57919;56.194;95.716;2023-05-22T05:20:38;98802.53;;;28.92;17.38
70458;BME280;57919;56.194;95.716;2023-05-22T05:30:40;98792.38;;;28.27;17.93
70458;BME280;57919;56.194;95.716;2023-05-22T05:41:02;98793.66;;;26.92;17.85
70458;BME280;57919;56.194;95.716;2023-05-22T05:51:05;98811.59;;;27.52;19.63
70458;BME280;57919;56.194;95.716;2023-05-22T06:01:12;98785.78;;;27.34;20.86
70458;BME280;57919;56.194;95.716;2023-05-22T06:11:15;98780.91;;;27.80;19.17
70458;BME280;57919;56.194;95.716;2023-05-22T06:21:28;98770.22;;;27.72;19.71
70458;BME280;57919;56.194;95.716;2023-05-22T06:31:30;98767.63;;;27.65;19.43
70458;BME280;57919;56.194;95.716;2023-05-22T06:41:37;98765.91;;;27.26;19.74
70458;BME280;57919;56.194;95.716;2023-05-22T06:51:41;98777.59;;;26.21;21.05
70458;BME280;57919;56.194;95.716;2023-05-22T07:01:46;98812.69;;;24.75;22.56
70458;BME280;57919;56.194;95.716;2023-05-22T07:11:53;98846.41;;;22.56;26.99
70458;BME280;57919;56.194;95.716;2023-05-22T07:21:56;98815.69;;;21.43;30.74
70458;BME280;57919;56.194;95.716;2023-05-22T07:31:59;98818.16;;;21.71;29.51
70458;BME280;57919;56.194;95.716;2023-05-22T07:42:02;98807.41;;;22.14;28.98
70458;BME280;57919;56.194;95.716;2023-05-22T07:52:08;98844.47;;;20.88;31.99
70458;BME280;57919;56.194;95.716;2023-05-22T08:02:10;98858.38;;;20.53;33.75
70458;BME280;57919;56.194;95.716;2023-05-22T08:12:12;98861.81;;;20.75;33.61
70458;BME280;57919;56.194;95.716;2023-05-22T08:22:15;98847.44;;;22.62;31.52
70458;BME280;57919;56.194;95.716;2023-05-22T08:32:17;98848.19;;;22.75;29.14
70458;BME280;57919;56.194;95.716;2023-05-22T08:42:19;98836.16;;;23.01;28.31
70458;BME280;57919;56.194;95.716;2023-05-22T08:52:22;98824.25;;;22.69;27.89
70458;BME280;57919;56.194;95.716;2023-05-22T09:02:27;98832.94;;;21.83;28.32
70458;BME280;57919;56.194;95.716;2023-05-22T09:12:28;98832.56;;;21.67;29.17
70458;BME280;57919;56.194;95.716;2023-05-22T09:22:35;98839.22;;;21.26;30.38
70458;BME280;57919;56.194;95.716;2023-05-22T09:32:40;98832.84;;;20.92;32.24
70458;BME280;57919;56.194;95.716;2023-05-22T09:42:43;98818.88;;;20.74;32.89
70458;BME280;57919;56.194;95.716;2023-05-22T09:52:49;98815.72;;;20.84;32.80
70458;BME280;57919;56.194;95.716;2023-05-22T10:03:09;98808.50;;;21.03;31.90
70458;BME280;57919;56.194;95.716;2023-05-22T10:13:16;98809.16;;;20.98;31.43
70458;BME280;57919;56.194;95.716;2023-05-22T10:23:18;98804.06;;;21.21;31.09
70458;BME280;57919;56.194;95.716;2023-05-22T10:33:25;98798.31;;;21.49;30.78
70458;BME280;57919;56.194;95.716;2023-05-22T10:43:29;98798.78;;;21.13;30.66
70458;BME280;57919;56.194;95.716;2023-05-22T10:53:35;98804.50;;;20.79;31.45
70458;BME280;57919;56.194;95.716;2023-05-22T11:03:56;98805.34;;;20.92;31.75
70458;BME280;57919;56.194;95.716;2023-05-22T11:14:01;98798.38;;;20.96;31.20
70458;BME280;57919;56.194;95.716;2023-05-22T11:24:06;98789.91;;;21.05;31.31
70458;BME280;57919;56.194;95.716;2023-05-22T11:34:11;98799.00;;;20.99;31.42
70458;BME280;57919;56.194;95.716;2023-05-22T11:44:13;98816.09;;;20.48;32.36
70458;BME280;57919;56.194;95.716;2023-05-22T11:54:18;98908.06;;;19.70;36.34
70458;BME280;57919;56.194;95.716;2023-05-22T12:04:21;98928.09;;;16.25;52.46
70458;BME280;57919;56.194;95.716;2023-05-22T12:14:27;98930.56;;;15.40;55.61
70458;BME280;57919;56.194;95.716;2023-05-22T12:24:44;98940.81;;;15.05;57.15
70458;BME280;57919;56.194;95.716;2023-05-22T12:34:48;98906.59;;;15.27;54.21
70458;BME280;57919;56.194;95.716;2023-05-22T12:44:55;98881.00;;;15.36;52.13
70458;BME280;57919;56.194;95.716;2023-05-22T12:54:57;98887.19;;;15.86;49.57
70458;BME280;57919;56.194;95.716;2023-05-22T13:04:59;98862.88;;;16.07;48.51
70458;BME280;57919;56.194;95.716;2023-05-22T13:15:01;98865.72;;;15.82;50.13
70458;BME280;57919;56.194;95.716;2023-05-22T13:25:07;98876.59;;;15.35;53.20
70458;BME280;57919;56.194;95.716;2023-05-22T13:35:09;98885.16;;;14.67;57.07
70458;BME280;57919;56.194;95.716;2023-05-22T13:45:11;98886.34;;;14.48;56.95
70458;BME280;57919;56.194;95.716;2023-05-22T13:55:13;98897.59;;;14.62;56.56
70458;BME280;57919;56.194;95.716;2023-05-22T14:05:15;98893.84;;;14.63;56.96
70458;BME280;57919;56.194;95.716;2023-05-22T14:15:17;98896.56;;;14.54;57.65
70458;BME280;57919;56.194;95.716;2023-05-22T14:25:19;98897.16;;;14.32;59.06
70458;BME280;57919;56.194;95.716;2023-05-22T14:35:21;98896.75;;;14.03;59.54
70458;BME280;57919;56.194;95.716;2023-05-22T14:45:23;98891.41;;;13.85;60.70
70458;BME280;57919;56.194;95.716;2023-05-22T14:55:25;98906.81;;;13.68;61.46
70458;BME280;57919;56.194;95.716;2023-05-22T15:05:28;98902.63;;;13.48;61.91
70458;BME280;57919;56.194;95.716;2023-05-22T15:15:30;98897.81;;;13.16;62.74
70458;BME280;57919;56.194;95.716;2023-05-22T15:25:34;98900.75;;;12.79;63.67
70458;BME280;57919;56.194;95.716;2023-05-22T15:35:37;98889.38;;;12.57;64.53
70458;BME280;57919;56.194;95.716;2023-05-22T15:45:38;98888.53;;;12.39;65.27
70458;BME280;57919;56.194;95.716;2023-05-22T15:55:40;98896.13;;;12.18;66.34
70458;BME280;57919;56.194;95.716;2023-05-22T16:05:42;98900.34;;;12.03;67.76
70458;BME280;57919;56.194;95.716;2023-05-22T16:15:47;98914.56;;;11.87;68.21
70458;BME280;57919;56.194;95.716;2023-05-22T16:25:49;98919.28;;;12.12;67.68
70458;BME280;57919;56.194;95.716;2023-05-22T16:35:51;98936.66;;;12.19;69.46
70458;BME280;57919;56.194;95.716;2023-05-22T16:45:53;98906.09;;;12.00;70.02
70458;BME280;57919;56.194;95.716;2023-05-22T16:55:55;98912.47;;;12.26;68.47
70458;BME280;57919;56.194;95.716;2023-05-22T17:05:57;98903.41;;;12.35;67.78
70458;BME280;57919;56.194;95.716;2023-05-22T17:15:59;98900.53;;;12.19;67.91
70458;BME280;57919;56.194;95.716;2023-05-22T17:26:01;98904.88;;;12.12;67.72
70458;BME280;57919;56.194;95.716;2023-05-22T17:36:03;98893.47;;;12.08;67.32
70458;BME280;57919;56.194;95.716;2023-05-22T17:46:05;98885.41;;;11.99;67.43
70458;BME280;57919;56.194;95.716;2023-05-22T17:56:07;98864.25;;;11.75;68.13
70458;BME280;57919;56.194;95.716;2023-05-22T18:06:09;98860.16;;;11.71;68.14
70458;BME280;57919;56.194;95.716;2023-05-22T18:16:11;98864.78;;;11.60;68.84
70458;BME280;57919;56.194;95.716;2023-05-22T18:26:15;98871.53;;;11.47;69.65
70458;BME280;57919;56.194;95.716;2023-05-22T18:36:17;98865.88;;;10.93;71.16
70458;BME280;57919;56.194;95.716;2023-05-22T18:46:18;98863.94;;;10.66;72.00
70458;BME280;57919;56.194;95.716;2023-05-22T18:56:20;98876.19;;;10.71;71.28
70458;BME280;57919;56.194;95.716;2023-05-22T19:06:22;98865.94;;;10.64;71.02
70458;BME280;57919;56.194;95.716;2023-05-22T19:16:26;98865.81;;;10.56;70.95
70458;BME280;57919;56.194;95.716;2023-05-22T19:26:28;98858.69;;;10.36;70.81
70458;BME280;57919;56.194;95.716;2023-05-22T19:36:30;98855.53;;;10.12;70.81
70458;BME280;57919;56.194;95.716;2023-05-22T19:46:32;98851.66;;;9.85;71.37
70458;BME280;57919;56.194;95.716;2023-05-22T19:56:34;98851.06;;;9.62;71.51
70458;BME280;57919;56.194;95.716;2023-05-22T20:06:36;98864.94;;;9.48;71.92
70458;BME280;57919;56.194;95.716;2023-05-22T20:16:38;98864.50;;;9.43;71.89
70458;BME280;57919;56.194;95.716;2023-05-22T20:26:40;98855.38;;;9.34;71.95
70458;BME280;57919;56.194;95.716;2023-05-22T20:36:42;98848.50;;;9.21;72.05
70458;BME280;57919;56.194;95.716;2023-05-22T20:46:45;98849.19;;;9.13;72.20
70458;BME280;57919;56.194;95.716;2023-05-22T20:56:47;98846.84;;;8.99;71.47
70458;BME280;57919;56.194;95.716;2023-05-22T21:06:49;98856.06;;;8.76;72.27
70458;BME280;57919;56.194;95.716;2023-05-22T21:16:51;98856.69;;;8.58;71.86
70458;BME280;57919;56.194;95.716;2023-05-22T21:26:53;98857.13;;;8.43;73.01
70458;BME280;57919;56.194;95.716;2023-05-22T21:36:55;98868.63;;;8.45;72.45
70458;BME280;57919;56.194;95.716;2023-05-22T21:46:57;98873.25;;;8.54;72.52
70458;BME280;57919;56.194;95.716;2023-05-22T21:56:59;98870.22;;;8.68;72.65
70458;BME280;57919;56.194;95.716;2023-05-22T22:07:01;98882.13;;;8.86;72.23
70458;BME280;57919;56.194;95.716;2023-05-22T22:17:03;98885.75;;;9.27;72.06
70458;BME280;57919;56.194;95.716;2023-05-22T22:27:06;98886.28;;;9.61;71.43
70458;BME280;57919;56.194;95.716;2023-05-22T22:37:08;98895.00;;;9.74;70.94
70458;BME280;57919;56.194;95.716;2023-05-22T22:47:10;98887.53;;;10.16;71.02
70458;BME280;57919;56.194;95.716;2023-05-22T22:57:11;98889.56;;;10.53;70.40
70458;BME280;57919;56.194;95.716;2023-05-22T23:07:13;98885.53;;;10.95;69.43
70458;BME280;57919;56.194;95.716;2023-05-22T23:17:15;98908.41;;;11.57;68.15
70458;BME280;57919;56.194;95.716;2023-05-22T23:27:17;98891.00;;;13.12;64.57
70458;BME280;57919;56.194;95.716;2023-05-22T23:37:19;98905.28;;;14.16;61.58
70458;BME280;57919;56.194;95.716;2023-05-22T23:47:21;98912.06;;;14.95;59.06
70458;BME280;57919;56.194;95.716;2023-05-22T23:57:23;98917.34;;;16.23;55.31
